»·PEaware :: N572JA KBFL-KSBP

N572JA :: KBFL-KSBP

FLIGHT INFORMATION

Flight Status: Arrived
Operator: Privately registered:
United States
More flights under this callsign
Pilot: John A. (16554)
Aircraft: CESSNA 172 SKYHAWK
(C172)
More flights by this aircraft type
Origin: KBFL Meadows
United States
Destination: KSBP San Luis Co Regl
United States
More flights between these airports :: More routes between these airports
Route:
File this flight plan on PilotEdge
Remarks:
Altitude:
(Current/Filed)
6,500ft
Speed:
(Current/Filed)
110kts
Departed: 30-Sep-17 05:41 PM
Arrived: 30-Sep-17 06:26 PM
Distance/Time
Traveled:
78nm/0:45
Distance/Time
To Go:
Arrived

Flight Plot

Page will automatically refresh every two minutes.


Map Options




Map Legend


Flown Route
Filed Route
Departure Airport
Arrival Airport
Navaid (VOR, NDB)
Fix

Horizontal Profiles

Position Reports

Time Latitude Longitude Heading Altitude Ground
Speed
30-Sep-17 17:44 35.628864 -119.109919 273 6503ft 112kts
30-Sep-17 17:45 35.622066 -119.147787 257 6501ft 115kts
30-Sep-17 17:46 35.613420 -119.185323 257 6499ft 111kts
30-Sep-17 17:47 35.604990 -119.221718 257 6500ft 110kts
30-Sep-17 17:48 35.596599 -119.257975 257 6500ft 110kts
30-Sep-17 17:49 35.588240 -119.294192 257 6500ft 110kts
30-Sep-17 17:50 35.579841 -119.330675 257 6483ft 109kts
30-Sep-17 17:51 35.571522 -119.366673 257 6500ft 110kts
30-Sep-17 17:52 35.563162 -119.402915 257 6500ft 110kts
30-Sep-17 17:53 35.554808 -119.439174 257 6500ft 110kts
30-Sep-17 17:54 35.546480 -119.475345 257 6500ft 110kts
30-Sep-17 17:55 35.538142 -119.511578 258 6500ft 110kts
30-Sep-17 17:56 35.529471 -119.549772 256 6502ft 120kts
30-Sep-17 17:57 35.517755 -119.588471 252 6500ft 123kts
30-Sep-17 17:58 35.505752 -119.628062 253 6500ft 123kts
30-Sep-17 17:59 35.493798 -119.667481 252 6501ft 124kts
30-Sep-17 18:00 35.481766 -119.707180 252 6501ft 124kts
30-Sep-17 18:01 35.469745 -119.746866 252 6501ft 124kts
30-Sep-17 18:02 35.457727 -119.786437 252 6504ft 123kts
30-Sep-17 18:03 35.445538 -119.825895 252 6511ft 123kts
30-Sep-17 18:04 35.433223 -119.864919 252 6518ft 122kts
30-Sep-17 18:05 35.420911 -119.903108 252 6526ft 121kts
30-Sep-17 18:06 35.408559 -119.940599 252 6534ft 120kts
30-Sep-17 18:07 35.393925 -119.977320 247 6544ft 119kts
30-Sep-17 18:08 35.378332 -120.013040 247 6552ft 118kts
30-Sep-17 18:09 35.362786 -120.048348 247 6551ft 117kts
30-Sep-17 18:10 35.347197 -120.083718 247 6512ft 118kts
30-Sep-17 18:11 35.331610 -120.119061 247 6511ft 118kts
30-Sep-17 18:12 35.316034 -120.154429 247 6510ft 118kts
30-Sep-17 18:13 35.300451 -120.189858 247 6509ft 118kts
30-Sep-17 18:14 35.288236 -120.226518 258 6508ft 115kts
30-Sep-17 18:15 35.278429 -120.264302 258 6253ft 117kts
30-Sep-17 18:16 35.268978 -120.299135 257 5527ft 103kts
30-Sep-17 18:17 35.258934 -120.331407 254 4823ft 101kts
30-Sep-17 18:18 35.248721 -120.360411 255 4494ft 77kts
30-Sep-17 18:19 35.239373 -120.388589 255 4509ft 100kts
30-Sep-17 18:20 35.229054 -120.421500 255 4502ft 105kts
30-Sep-17 18:21 35.218943 -120.453551 255 4497ft 95kts
30-Sep-17 18:22 35.210781 -120.483093 260 4082ft 90kts
30-Sep-17 18:23 35.203042 -120.512187 256 3416ft 90kts
30-Sep-17 18:24 35.192964 -120.540043 254 2598ft 88kts
30-Sep-17 18:25 35.192889 -120.562011 298 2185ft 63kts
30-Sep-17 18:26 35.202300 -120.581030 306 1645ft 63kts
30-Sep-17 18:27 35.212037 -120.597439 305 1124ft 56kts
30-Sep-17 18:28 35.221195 -120.613172 306 659ft 57kts
30-Sep-17 18:29 35.230195 -120.628689 306 296ft 53kts
30-Sep-17 18:30 35.235426 -120.636125 27 206ft 13kts
30-Sep-17 18:31 35.237353 -120.637426 164 201ft 0kts
30-Sep-17 18:32 35.237597 -120.639080 339 195ft 8kts
30-Sep-17 18:33 35.237764 -120.639129 257 194ft 0kts
30-Sep-17 18:34 35.237764 -120.639129 257 194ft 0kts
30-Sep-17 18:35 35.237764 -120.639129 257 194ft 0kts
30-Sep-17 18:36 35.237764 -120.639129 257 194ft 0kts
30-Sep-17 18:37 35.237764 -120.639129 257 194ft 0kts
30-Sep-17 18:38 35.237764 -120.639129 257 194ft 0kts
30-Sep-17 18:39 35.237764 -120.639129 257 194ft 0kts
30-Sep-17 18:40 35.237764 -120.639129 257 194ft 0kts
30-Sep-17 18:41 35.237763 -120.639129 257 194ft 0kts
30-Sep-17 18:42 35.237763 -120.639129 257 194ft 0kts
30-Sep-17 18:43 35.237763 -120.639129 257 194ft 0kts

Navigation Log

Ident Type
1. KBFL Airport
2. KSBP Airport